Anadarko, Texas
Current Conditions -  °F | °C
As of 8:15 AM on Thursday 27 Nov 2014 (Local Time) from KRFI Reporting Station
Clear Clear  
Wind Chill:   Ceiling: Unl
Heat Index:   Visibility: 10mi
Dew Point: -1°   Wind: 9mph
Humidity: 63%   Direction: 10°N
Pressure: 30.51"   Gusts: NA
Location:  31.9447°N, 94.855°W
Report Text: KRFI 271415Z AUTO 01008KT 10SM CLR 06/M01 A3051 RMK AO2 T00561010
Loading
Personal Weather Stations






























Interactive Weather Map New forecast layout! Learn more

10-Day Weather Forecast

Advertisements
Track Severe Weather on mobile